In Rescue
 
Open Full Screen Window  High Contrast Mode
Wind Gusting 14 knots
10
May 20, 2019 3:47 PM EDT
Weather Information
Wind Direction
  340 °
Wind Speed
  10 kt (12 mph)
Wind Gust
  14 kt (16 mph)
Variable Wind
300°
020°
Altimeter
29.98 in
Visibility
10 SM
Temperature
10° C
50° F
Dewpoint
04° C
39° F
Humidity
67%
1hr Rain Fall
00.00 in.
24hr Rain Fall
00.12 in.
Sky Condition
Overcast @ 2,700 ft
MVFR

METAR KY31 201947Z AUTO 34010G14KT 300V020 10SM OVC027 10/04 A2998 RMK AO2 T00990037

FAA Disclaimer: The data displayed is for advisory purposes only and is not to be used for flight planning or operations.